sensor_id;sensor_type;location;lat;lon;timestamp;pressure;altitude;pressure_sealevel;temperature
70533;BMP180;58088;51.186;17.130;2023-06-01T00:00:47;100541.40;;;13.70
70533;BMP180;58088;51.186;17.130;2023-06-01T00:03:14;100537.20;;;13.70
70533;BMP180;58088;51.186;17.130;2023-06-01T00:05:40;100528.60;;;13.70
70533;BMP180;58088;51.186;17.130;2023-06-01T00:08:06;100533.00;;;13.60
70533;BMP180;58088;51.186;17.130;2023-06-01T00:10:32;100529.20;;;13.60
70533;BMP180;58088;51.186;17.130;2023-06-01T00:12:58;100530.80;;;13.50
70533;BMP180;58088;51.186;17.130;2023-06-01T00:15:25;100529.80;;;13.50
70533;BMP180;58088;51.186;17.130;2023-06-01T00:17:51;100525.40;;;13.50
70533;BMP180;58088;51.186;17.130;2023-06-01T00:20:18;100523.80;;;13.50
70533;BMP180;58088;51.186;17.130;2023-06-01T00:22:44;100519.60;;;13.40
70533;BMP180;58088;51.186;17.130;2023-06-01T00:25:10;100519.20;;;13.40
70533;BMP180;58088;51.186;17.130;2023-06-01T00:27:36;100516.40;;;13.30
70533;BMP180;58088;51.186;17.130;2023-06-01T00:30:03;100517.80;;;13.30
70533;BMP180;58088;51.186;17.130;2023-06-01T00:32:29;100513.00;;;13.30
70533;BMP180;58088;51.186;17.130;2023-06-01T00:34:55;100511.40;;;13.30
70533;BMP180;58088;51.186;17.130;2023-06-01T00:37:21;100513.40;;;13.30
70533;BMP180;58088;51.186;17.130;2023-06-01T00:39:48;100512.80;;;13.20
70533;BMP180;58088;51.186;17.130;2023-06-01T00:42:14;100514.00;;;13.10
70533;BMP180;58088;51.186;17.130;2023-06-01T00:44:40;100510.00;;;13.10
70533;BMP180;58088;51.186;17.130;2023-06-01T00:47:06;100506.80;;;13.06
70533;BMP180;58088;51.186;17.130;2023-06-01T00:49:34;100512.20;;;13.00
70533;BMP180;58088;51.186;17.130;2023-06-01T00:52:00;100510.20;;;13.00
70533;BMP180;58088;51.186;17.130;2023-06-01T00:54:27;100508.80;;;12.90
70533;BMP180;58088;51.186;17.130;2023-06-01T00:56:53;100511.40;;;12.80
70533;BMP180;58088;51.186;17.130;2023-06-01T00:59:19;100515.00;;;12.80
70533;BMP180;58088;51.186;17.130;2023-06-01T01:01:45;100510.60;;;12.78
70533;BMP180;58088;51.186;17.130;2023-06-01T01:04:12;100513.40;;;12.70
70533;BMP180;58088;51.186;17.130;2023-06-01T01:07:32;100510.20;;;12.62
70533;BMP180;58088;51.186;17.130;2023-06-01T01:10:13;100515.80;;;12.70
70533;BMP180;58088;51.186;17.130;2023-06-01T01:12:57;100516.00;;;12.70
70533;BMP180;58088;51.186;17.130;2023-06-01T01:15:38;100515.40;;;12.70
70533;BMP180;58088;51.186;17.130;2023-06-01T01:18:24;100519.40;;;12.70
70533;BMP180;58088;51.186;17.130;2023-06-01T01:21:00;100514.60;;;12.60
70533;BMP180;58088;51.186;17.130;2023-06-01T01:26:12;100509.60;;;12.60
70533;BMP180;58088;51.186;17.130;2023-06-01T01:28:51;100507.80;;;12.60
70533;BMP180;58088;51.186;17.130;2023-06-01T01:31:23;100509.20;;;12.60
70533;BMP180;58088;51.186;17.130;2023-06-01T01:33:55;100501.40;;;12.54
70533;BMP180;58088;51.186;17.130;2023-06-01T01:36:24;100494.40;;;12.50
70533;BMP180;58088;51.186;17.130;2023-06-01T01:38:50;100493.40;;;12.50
70533;BMP180;58088;51.186;17.130;2023-06-01T01:41:17;100488.00;;;12.50
70533;BMP180;58088;51.186;17.130;2023-06-01T01:43:44;100487.40;;;12.50
70533;BMP180;58088;51.186;17.130;2023-06-01T01:46:29;100491.40;;;12.50
70533;BMP180;58088;51.186;17.130;2023-06-01T01:49:46;100485.20;;;12.50
70533;BMP180;58088;51.186;17.130;2023-06-01T01:52:10;100479.20;;;12.50
70533;BMP180;58088;51.186;17.130;2023-06-01T01:54:45;100481.60;;;12.44
70533;BMP180;58088;51.186;17.130;2023-06-01T01:57:14;100479.00;;;12.40
70533;BMP180;58088;51.186;17.130;2023-06-01T01:59:43;100478.40;;;12.40
70533;BMP180;58088;51.186;17.130;2023-06-01T02:02:10;100477.80;;;12.30
70533;BMP180;58088;51.186;17.130;2023-06-01T02:04:54;100476.20;;;12.30
70533;BMP180;58088;51.186;17.130;2023-06-01T02:07:21;100476.40;;;12.30
70533;BMP180;58088;51.186;17.130;2023-06-01T02:09:48;100477.80;;;12.30
70533;BMP180;58088;51.186;17.130;2023-06-01T02:12:14;100472.00;;;12.20
70533;BMP180;58088;51.186;17.130;2023-06-01T02:14:41;100470.40;;;12.20
70533;BMP180;58088;51.186;17.130;2023-06-01T02:17:07;100467.20;;;12.20
70533;BMP180;58088;51.186;17.130;2023-06-01T02:19:33;100466.20;;;12.20
70533;BMP180;58088;51.186;17.130;2023-06-01T02:21:59;100470.00;;;12.10
70533;BMP180;58088;51.186;17.130;2023-06-01T02:24:26;100466.60;;;12.08
70533;BMP180;58088;51.186;17.130;2023-06-01T02:26:52;100465.20;;;12.10
70533;BMP180;58088;51.186;17.130;2023-06-01T02:29:20;100467.40;;;12.10
70533;BMP180;58088;51.186;17.130;2023-06-01T02:31:50;100464.60;;;12.10
70533;BMP180;58088;51.186;17.130;2023-06-01T02:34:19;100469.00;;;12.10
70533;BMP180;58088;51.186;17.130;2023-06-01T02:36:46;100467.40;;;12.10
70533;BMP180;58088;51.186;17.130;2023-06-01T02:39:15;100463.40;;;12.00
70533;BMP180;58088;51.186;17.130;2023-06-01T02:41:41;100465.80;;;12.00
70533;BMP180;58088;51.186;17.130;2023-06-01T02:44:07;100464.20;;;12.00
70533;BMP180;58088;51.186;17.130;2023-06-01T02:46:34;100456.80;;;12.00
70533;BMP180;58088;51.186;17.130;2023-06-01T02:49:00;100457.60;;;12.00
70533;BMP180;58088;51.186;17.130;2023-06-01T02:51:27;100458.80;;;12.00
70533;BMP180;58088;51.186;17.130;2023-06-01T02:54:04;100453.80;;;12.00
70533;BMP180;58088;51.186;17.130;2023-06-01T02:56:30;100454.00;;;12.00
70533;BMP180;58088;51.186;17.130;2023-06-01T02:59:15;100448.20;;;12.00
70533;BMP180;58088;51.186;17.130;2023-06-01T03:01:47;100450.00;;;12.10
70533;BMP180;58088;51.186;17.130;2023-06-01T03:04:14;100449.60;;;12.10
70533;BMP180;58088;51.186;17.130;2023-06-01T03:06:41;100450.60;;;12.10
70533;BMP180;58088;51.186;17.130;2023-06-01T03:09:09;100451.60;;;12.10
70533;BMP180;58088;51.186;17.130;2023-06-01T03:11:49;100450.40;;;12.10
70533;BMP180;58088;51.186;17.130;2023-06-01T03:14:16;100448.20;;;12.10
70533;BMP180;58088;51.186;17.130;2023-06-01T03:16:42;100453.00;;;12.16
70533;BMP180;58088;51.186;17.130;2023-06-01T03:19:15;100453.60;;;12.10
70533;BMP180;58088;51.186;17.130;2023-06-01T03:21:42;100448.80;;;12.10
70533;BMP180;58088;51.186;17.130;2023-06-01T03:24:08;100452.40;;;12.18
70533;BMP180;58088;51.186;17.130;2023-06-01T03:26:34;100451.60;;;12.20
70533;BMP180;58088;51.186;17.130;2023-06-01T03:29:01;100456.00;;;12.28
70533;BMP180;58088;51.186;17.130;2023-06-01T03:31:28;100457.80;;;12.30
70533;BMP180;58088;51.186;17.130;2023-06-01T03:33:55;100454.40;;;12.34
70533;BMP180;58088;51.186;17.130;2023-06-01T03:36:21;100456.20;;;12.38
70533;BMP180;58088;51.186;17.130;2023-06-01T03:38:48;100453.80;;;12.40
70533;BMP180;58088;51.186;17.130;2023-06-01T03:41:15;100450.20;;;12.40
70533;BMP180;58088;51.186;17.130;2023-06-01T03:43:41;100447.40;;;12.50
70533;BMP180;58088;51.186;17.130;2023-06-01T03:46:07;100452.80;;;12.60
70533;BMP180;58088;51.186;17.130;2023-06-01T03:48:35;100456.00;;;12.70
70533;BMP180;58088;51.186;17.130;2023-06-01T03:51:01;100454.60;;;12.80
70533;BMP180;58088;51.186;17.130;2023-06-01T03:53:27;100446.20;;;12.80
70533;BMP180;58088;51.186;17.130;2023-06-01T03:55:53;100441.60;;;12.94
70533;BMP180;58088;51.186;17.130;2023-06-01T03:58:41;100443.60;;;13.10
70533;BMP180;58088;51.186;17.130;2023-06-01T04:01:09;100441.80;;;13.20
70533;BMP180;58088;51.186;17.130;2023-06-01T04:03:39;100446.00;;;13.30
70533;BMP180;58088;51.186;17.130;2023-06-01T04:06:05;100447.80;;;13.50
70533;BMP180;58088;51.186;17.130;2023-06-01T04:08:41;100436.40;;;13.80
70533;BMP180;58088;51.186;17.130;2023-06-01T04:11:15;100437.60;;;14.26
70533;BMP180;58088;51.186;17.130;2023-06-01T04:13:43;100440.80;;;14.70
70533;BMP180;58088;51.186;17.130;2023-06-01T04:16:10;100435.40;;;15.22
70533;BMP180;58088;51.186;17.130;2023-06-01T04:18:38;100435.60;;;15.76
70533;BMP180;58088;51.186;17.130;2023-06-01T04:21:05;100429.60;;;16.22
70533;BMP180;58088;51.186;17.130;2023-06-01T04:23:33;100426.40;;;16.70
70533;BMP180;58088;51.186;17.130;2023-06-01T04:25:59;100429.80;;;17.12
70533;BMP180;58088;51.186;17.130;2023-06-01T04:28:27;100436.20;;;17.50
70533;BMP180;58088;51.186;17.130;2023-06-01T04:30:54;100427.00;;;17.80
70533;BMP180;58088;51.186;17.130;2023-06-01T04:33:22;100420.20;;;18.12
70533;BMP180;58088;51.186;17.130;2023-06-01T04:35:49;100422.60;;;18.40
70533;BMP180;58088;51.186;17.130;2023-06-01T04:38:15;100418.20;;;18.70
70533;BMP180;58088;51.186;17.130;2023-06-01T04:40:43;100419.40;;;19.00
70533;BMP180;58088;51.186;17.130;2023-06-01T04:43:14;100416.40;;;19.44
70533;BMP180;58088;51.186;17.130;2023-06-01T04:45:46;100414.40;;;19.90
70533;BMP180;58088;51.186;17.130;2023-06-01T04:48:12;100414.40;;;20.22
70533;BMP180;58088;51.186;17.130;2023-06-01T04:51:10;100408.80;;;20.56
70533;BMP180;58088;51.186;17.130;2023-06-01T04:53:36;100415.60;;;20.70
70533;BMP180;58088;51.186;17.130;2023-06-01T04:56:02;100416.40;;;20.80
70533;BMP180;58088;51.186;17.130;2023-06-01T04:58:28;100416.40;;;20.80
70533;BMP180;58088;51.186;17.130;2023-06-01T05:00:55;100412.60;;;21.10
70533;BMP180;58088;51.186;17.130;2023-06-01T05:03:22;100413.00;;;21.30
70533;BMP180;58088;51.186;17.130;2023-06-01T05:05:48;100408.80;;;21.50
70533;BMP180;58088;51.186;17.130;2023-06-01T05:08:14;100412.40;;;21.80
70533;BMP180;58088;51.186;17.130;2023-06-01T05:10:41;100413.80;;;22.10
70533;BMP180;58088;51.186;17.130;2023-06-01T05:13:07;100413.80;;;22.30
70533;BMP180;58088;51.186;17.130;2023-06-01T05:15:35;100416.80;;;22.50
70533;BMP180;58088;51.186;17.130;2023-06-01T05:18:01;100413.40;;;22.50
70533;BMP180;58088;51.186;17.130;2023-06-01T05:20:28;100409.40;;;22.82
70533;BMP180;58088;51.186;17.130;2023-06-01T05:22:56;100403.60;;;23.44
70533;BMP180;58088;51.186;17.130;2023-06-01T05:25:23;100404.20;;;24.04
70533;BMP180;58088;51.186;17.130;2023-06-01T05:27:50;100401.00;;;24.48
70533;BMP180;58088;51.186;17.130;2023-06-01T05:30:16;100400.40;;;24.86
70533;BMP180;58088;51.186;17.130;2023-06-01T05:32:44;100403.00;;;25.20
70533;BMP180;58088;51.186;17.130;2023-06-01T05:35:15;100405.60;;;25.60
70533;BMP180;58088;51.186;17.130;2023-06-01T05:37:41;100405.00;;;26.00
70533;BMP180;58088;51.186;17.130;2023-06-01T05:40:09;100401.20;;;26.34
70533;BMP180;58088;51.186;17.130;2023-06-01T05:42:39;100398.00;;;26.76
70533;BMP180;58088;51.186;17.130;2023-06-01T05:45:06;100402.40;;;27.10
70533;BMP180;58088;51.186;17.130;2023-06-01T05:47:33;100404.40;;;27.30
70533;BMP180;58088;51.186;17.130;2023-06-01T05:49:59;100405.60;;;27.40
70533;BMP180;58088;51.186;17.130;2023-06-01T05:52:25;100401.60;;;27.76
70533;BMP180;58088;51.186;17.130;2023-06-01T05:54:51;100405.00;;;28.06
70533;BMP180;58088;51.186;17.130;2023-06-01T05:57:20;100397.80;;;28.30
70533;BMP180;58088;51.186;17.130;2023-06-01T05:59:46;100402.40;;;28.54
70533;BMP180;58088;51.186;17.130;2023-06-01T06:02:13;100402.00;;;28.76
70533;BMP180;58088;51.186;17.130;2023-06-01T06:04:40;100402.80;;;28.90
70533;BMP180;58088;51.186;17.130;2023-06-01T06:07:06;100402.40;;;29.00
70533;BMP180;58088;51.186;17.130;2023-06-01T06:09:33;100402.20;;;29.00
70533;BMP180;58088;51.186;17.130;2023-06-01T06:11:59;100404.40;;;29.30
70533;BMP180;58088;51.186;17.130;2023-06-01T06:14:27;100403.40;;;29.44
70533;BMP180;58088;51.186;17.130;2023-06-01T06:16:53;100405.20;;;29.72
70533;BMP180;58088;51.186;17.130;2023-06-01T06:19:19;100403.60;;;29.84
70533;BMP180;58088;51.186;17.130;2023-06-01T06:21:45;100402.80;;;29.70
70533;BMP180;58088;51.186;17.130;2023-06-01T06:24:12;100399.60;;;29.70
70533;BMP180;58088;51.186;17.130;2023-06-01T06:26:38;100396.40;;;29.60
70533;BMP180;58088;51.186;17.130;2023-06-01T06:29:04;100393.60;;;29.46
70533;BMP180;58088;51.186;17.130;2023-06-01T06:31:30;100395.40;;;29.30
70533;BMP180;58088;51.186;17.130;2023-06-01T06:33:56;100399.00;;;29.20
70533;BMP180;58088;51.186;17.130;2023-06-01T06:36:22;100398.40;;;29.50
70533;BMP180;58088;51.186;17.130;2023-06-01T06:38:48;100402.60;;;29.80
70533;BMP180;58088;51.186;17.130;2023-06-01T06:41:15;100402.80;;;30.00
70533;BMP180;58088;51.186;17.130;2023-06-01T06:43:41;100402.00;;;30.30
70533;BMP180;58088;51.186;17.130;2023-06-01T06:46:07;100402.80;;;30.40
70533;BMP180;58088;51.186;17.130;2023-06-01T06:48:34;100402.60;;;30.40
70533;BMP180;58088;51.186;17.130;2023-06-01T06:51:01;100401.80;;;30.30
70533;BMP180;58088;51.186;17.130;2023-06-01T06:53:28;100403.60;;;30.30
70533;BMP180;58088;51.186;17.130;2023-06-01T06:55:54;100404.60;;;30.30
70533;BMP180;58088;51.186;17.130;2023-06-01T06:58:20;100396.40;;;30.38
70533;BMP180;58088;51.186;17.130;2023-06-01T07:00:46;100394.60;;;30.60
70533;BMP180;58088;51.186;17.130;2023-06-01T07:03:12;100392.40;;;30.60
70533;BMP180;58088;51.186;17.130;2023-06-01T07:05:39;100392.60;;;30.64
70533;BMP180;58088;51.186;17.130;2023-06-01T07:08:05;100391.00;;;30.80
70533;BMP180;58088;51.186;17.130;2023-06-01T07:10:32;100389.40;;;30.80
70533;BMP180;58088;51.186;17.130;2023-06-01T07:12:58;100390.00;;;30.90
70533;BMP180;58088;51.186;17.130;2023-06-01T07:15:24;100387.20;;;31.20
70533;BMP180;58088;51.186;17.130;2023-06-01T07:17:50;100389.40;;;31.38
70533;BMP180;58088;51.186;17.130;2023-06-01T07:20:17;100383.40;;;31.50
70533;BMP180;58088;51.186;17.130;2023-06-01T07:22:43;100382.00;;;31.40
70533;BMP180;58088;51.186;17.130;2023-06-01T07:25:09;100381.40;;;31.40
70533;BMP180;58088;51.186;17.130;2023-06-01T07:27:39;100391.80;;;31.50
70533;BMP180;58088;51.186;17.130;2023-06-01T07:30:10;100389.20;;;31.70
70533;BMP180;58088;51.186;17.130;2023-06-01T07:32:38;100387.60;;;31.50
70533;BMP180;58088;51.186;17.130;2023-06-01T07:35:04;100394.00;;;31.30
70533;BMP180;58088;51.186;17.130;2023-06-01T07:37:32;100396.00;;;31.40
70533;BMP180;58088;51.186;17.130;2023-06-01T07:39:58;100397.00;;;31.00
70533;BMP180;58088;51.186;17.130;2023-06-01T07:42:24;100398.00;;;30.52
70533;BMP180;58088;51.186;17.130;2023-06-01T07:44:51;100392.20;;;30.40
70533;BMP180;58088;51.186;17.130;2023-06-01T07:47:17;100386.40;;;30.40
70533;BMP180;58088;51.186;17.130;2023-06-01T07:49:43;100388.20;;;30.40
70533;BMP180;58088;51.186;17.130;2023-06-01T07:52:09;100385.00;;;30.40
70533;BMP180;58088;51.186;17.130;2023-06-01T07:54:36;100380.80;;;30.30
70533;BMP180;58088;51.186;17.130;2023-06-01T07:57:06;100384.60;;;30.20
70533;BMP180;58088;51.186;17.130;2023-06-01T07:59:32;100384.20;;;30.46
70533;BMP180;58088;51.186;17.130;2023-06-01T08:01:59;100386.80;;;30.50
70533;BMP180;58088;51.186;17.130;2023-06-01T08:04:26;100380.80;;;30.30
70533;BMP180;58088;51.186;17.130;2023-06-01T08:06:53;100385.00;;;30.20
70533;BMP180;58088;51.186;17.130;2023-06-01T08:09:21;100379.80;;;30.20
70533;BMP180;58088;51.186;17.130;2023-06-01T08:11:49;100375.80;;;29.92
70533;BMP180;58088;51.186;17.130;2023-06-01T08:14:16;100376.80;;;30.00
70533;BMP180;58088;51.186;17.130;2023-06-01T08:16:44;100375.40;;;29.80
70533;BMP180;58088;51.186;17.130;2023-06-01T08:19:11;100372.20;;;29.80
70533;BMP180;58088;51.186;17.130;2023-06-01T08:21:37;100370.00;;;29.90
70533;BMP180;58088;51.186;17.130;2023-06-01T08:24:03;100370.60;;;29.90
70533;BMP180;58088;51.186;17.130;2023-06-01T08:26:30;100370.40;;;29.90
70533;BMP180;58088;51.186;17.130;2023-06-01T08:28:56;100362.00;;;29.82
70533;BMP180;58088;51.186;17.130;2023-06-01T08:31:24;100363.20;;;29.78
70533;BMP180;58088;51.186;17.130;2023-06-01T08:33:51;100361.80;;;29.80
70533;BMP180;58088;51.186;17.130;2023-06-01T08:36:19;100365.40;;;30.08
70533;BMP180;58088;51.186;17.130;2023-06-01T08:38:45;100365.60;;;30.10
70533;BMP180;58088;51.186;17.130;2023-06-01T08:44:26;100360.20;;;30.10
70533;BMP180;58088;51.186;17.130;2023-06-01T08:46:57;100352.40;;;29.90
70533;BMP180;58088;51.186;17.130;2023-06-01T08:49:26;100350.00;;;29.90
70533;BMP180;58088;51.186;17.130;2023-06-01T08:51:56;100353.60;;;30.10
70533;BMP180;58088;51.186;17.130;2023-06-01T08:54:27;100344.40;;;30.20
70533;BMP180;58088;51.186;17.130;2023-06-01T08:57:00;100339.40;;;30.20
70533;BMP180;58088;51.186;17.130;2023-06-01T08:59:36;100331.40;;;30.30
70533;BMP180;58088;51.186;17.130;2023-06-01T09:02:04;100334.20;;;30.40
70533;BMP180;58088;51.186;17.130;2023-06-01T09:04:35;100331.00;;;30.30
70533;BMP180;58088;51.186;17.130;2023-06-01T09:07:09;100328.80;;;30.20
70533;BMP180;58088;51.186;17.130;2023-06-01T09:09:36;100327.20;;;30.00
70533;BMP180;58088;51.186;17.130;2023-06-01T09:12:26;100318.60;;;29.90
70533;BMP180;58088;51.186;17.130;2023-06-01T09:15:15;100320.60;;;30.10
70533;BMP180;58088;51.186;17.130;2023-06-01T09:17:45;100323.60;;;30.30
70533;BMP180;58088;51.186;17.130;2023-06-01T09:20:14;100321.80;;;30.40
70533;BMP180;58088;51.186;17.130;2023-06-01T09:22:45;100320.60;;;30.30
70533;BMP180;58088;51.186;17.130;2023-06-01T09:25:14;100318.00;;;30.02
70533;BMP180;58088;51.186;17.130;2023-06-01T09:27:45;100319.60;;;30.00
70533;BMP180;58088;51.186;17.130;2023-06-01T09:30:13;100303.60;;;30.00
70533;BMP180;58088;51.186;17.130;2023-06-01T09:32:40;100307.00;;;29.96
70533;BMP180;58088;51.186;17.130;2023-06-01T09:35:07;100305.00;;;30.00
70533;BMP180;58088;51.186;17.130;2023-06-01T09:37:38;100303.80;;;30.10
70533;BMP180;58088;51.186;17.130;2023-06-01T09:40:18;100308.20;;;30.20
70533;BMP180;58088;51.186;17.130;2023-06-01T09:42:44;100306.20;;;30.22
70533;BMP180;58088;51.186;17.130;2023-06-01T09:45:19;100300.20;;;30.14
70533;BMP180;58088;51.186;17.130;2023-06-01T09:47:48;100297.60;;;30.20
70533;BMP180;58088;51.186;17.130;2023-06-01T09:50:37;100295.20;;;30.20
70533;BMP180;58088;51.186;17.130;2023-06-01T09:53:05;100289.60;;;30.18
70533;BMP180;58088;51.186;17.130;2023-06-01T09:55:32;100286.80;;;30.24
70533;BMP180;58088;51.186;17.130;2023-06-01T10:00:49;100286.80;;;30.40
70533;BMP180;58088;51.186;17.130;2023-06-01T10:03:17;100284.80;;;30.30
70533;BMP180;58088;51.186;17.130;2023-06-01T10:05:45;100277.00;;;30.30
70533;BMP180;58088;51.186;17.130;2023-06-01T10:08:15;100276.40;;;30.32
70533;BMP180;58088;51.186;17.130;2023-06-01T10:10:48;100276.20;;;30.30
70533;BMP180;58088;51.186;17.130;2023-06-01T10:13:14;100273.40;;;30.40
70533;BMP180;58088;51.186;17.130;2023-06-01T10:15:41;100270.60;;;30.50
70533;BMP180;58088;51.186;17.130;2023-06-01T10:18:08;100271.60;;;30.60
70533;BMP180;58088;51.186;17.130;2023-06-01T10:20:36;100267.40;;;30.60
70533;BMP180;58088;51.186;17.130;2023-06-01T10:23:04;100271.40;;;30.72
70533;BMP180;58088;51.186;17.130;2023-06-01T10:25:39;100269.00;;;30.70
70533;BMP180;58088;51.186;17.130;2023-06-01T10:28:11;100269.00;;;30.60
70533;BMP180;58088;51.186;17.130;2023-06-01T10:30:38;100267.80;;;30.60
70533;BMP180;58088;51.186;17.130;2023-06-01T10:33:06;100267.20;;;30.50
70533;BMP180;58088;51.186;17.130;2023-06-01T10:40:44;100260.00;;;30.68
70533;BMP180;58088;51.186;17.130;2023-06-01T10:46:02;100258.40;;;30.70
70533;BMP180;58088;51.186;17.130;2023-06-01T10:48:52;100260.80;;;30.80
70533;BMP180;58088;51.186;17.130;2023-06-01T10:51:21;100255.00;;;30.90
70533;BMP180;58088;51.186;17.130;2023-06-01T10:53:49;100250.40;;;30.90
70533;BMP180;58088;51.186;17.130;2023-06-01T10:56:24;100254.60;;;30.90
70533;BMP180;58088;51.186;17.130;2023-06-01T11:01:39;100242.20;;;30.90
70533;BMP180;58088;51.186;17.130;2023-06-01T11:04:07;100243.40;;;30.90
70533;BMP180;58088;51.186;17.130;2023-06-01T11:06:36;100242.40;;;30.88
70533;BMP180;58088;51.186;17.130;2023-06-01T11:09:06;100230.40;;;30.78
70533;BMP180;58088;51.186;17.130;2023-06-01T11:14:24;100231.00;;;30.80
70533;BMP180;58088;51.186;17.130;2023-06-01T11:16:54;100232.00;;;30.60
70533;BMP180;58088;51.186;17.130;2023-06-01T11:19:24;100230.40;;;30.50
70533;BMP180;58088;51.186;17.130;2023-06-01T11:24:35;100229.80;;;30.50
70533;BMP180;58088;51.186;17.130;2023-06-01T11:27:08;100222.80;;;30.60
70533;BMP180;58088;51.186;17.130;2023-06-01T11:29:34;100222.60;;;30.70
70533;BMP180;58088;51.186;17.130;2023-06-01T11:32:04;100223.80;;;30.70
70533;BMP180;58088;51.186;17.130;2023-06-01T11:34:39;100218.20;;;30.60
70533;BMP180;58088;51.186;17.130;2023-06-01T11:37:16;100220.60;;;30.60
70533;BMP180;58088;51.186;17.130;2023-06-01T11:39:44;100217.20;;;30.60
70533;BMP180;58088;51.186;17.130;2023-06-01T11:42:17;100211.20;;;30.70
70533;BMP180;58088;51.186;17.130;2023-06-01T11:44:46;100205.40;;;30.70
70533;BMP180;58088;51.186;17.130;2023-06-01T11:47:15;100195.60;;;30.70
70533;BMP180;58088;51.186;17.130;2023-06-01T11:49:49;100197.80;;;30.70
70533;BMP180;58088;51.186;17.130;2023-06-01T11:52:18;100202.80;;;30.60
70533;BMP180;58088;51.186;17.130;2023-06-01T11:54:48;100201.20;;;30.60
70533;BMP180;58088;51.186;17.130;2023-06-01T11:57:15;100195.20;;;30.50
70533;BMP180;58088;51.186;17.130;2023-06-01T11:59:44;100195.00;;;30.50
70533;BMP180;58088;51.186;17.130;2023-06-01T12:02:25;100188.00;;;30.52
70533;BMP180;58088;51.186;17.130;2023-06-01T12:05:01;100185.00;;;30.60
70533;BMP180;58088;51.186;17.130;2023-06-01T12:07:48;100191.00;;;30.74
70533;BMP180;58088;51.186;17.130;2023-06-01T12:10:18;100188.80;;;30.80
70533;BMP180;58088;51.186;17.130;2023-06-01T12:12:46;100180.40;;;30.70
70533;BMP180;58088;51.186;17.130;2023-06-01T12:15:18;100180.20;;;30.70
70533;BMP180;58088;51.186;17.130;2023-06-01T12:17:55;100171.60;;;30.70
70533;BMP180;58088;51.186;17.130;2023-06-01T12:20:38;100168.80;;;30.70
70533;BMP180;58088;51.186;17.130;2023-06-01T12:28:21;100170.20;;;30.60
70533;BMP180;58088;51.186;17.130;2023-06-01T12:30:48;100157.40;;;30.56
70533;BMP180;58088;51.186;17.130;2023-06-01T12:33:33;100153.80;;;30.64
70533;BMP180;58088;51.186;17.130;2023-06-01T12:36:02;100148.40;;;30.70
70533;BMP180;58088;51.186;17.130;2023-06-01T12:38:35;100148.80;;;30.80
70533;BMP180;58088;51.186;17.130;2023-06-01T12:41:06;100152.80;;;30.70
70533;BMP180;58088;51.186;17.130;2023-06-01T12:43:36;100146.00;;;30.70
70533;BMP180;58088;51.186;17.130;2023-06-01T12:46:03;100142.20;;;30.76
70533;BMP180;58088;51.186;17.130;2023-06-01T12:48:35;100140.80;;;30.80
70533;BMP180;58088;51.186;17.130;2023-06-01T12:51:03;100137.80;;;30.80
70533;BMP180;58088;51.186;17.130;2023-06-01T12:53:30;100133.20;;;30.78
70533;BMP180;58088;51.186;17.130;2023-06-01T12:55:56;100133.60;;;30.80
70533;BMP180;58088;51.186;17.130;2023-06-01T12:58:22;100128.00;;;30.80
70533;BMP180;58088;51.186;17.130;2023-06-01T13:00:48;100129.20;;;30.70
70533;BMP180;58088;51.186;17.130;2023-06-01T13:03:15;100131.20;;;30.70
70533;BMP180;58088;51.186;17.130;2023-06-01T13:05:42;100130.60;;;30.60
70533;BMP180;58088;51.186;17.130;2023-06-01T13:08:14;100118.20;;;30.60
70533;BMP180;58088;51.186;17.130;2023-06-01T13:10:42;100121.20;;;30.60
70533;BMP180;58088;51.186;17.130;2023-06-01T13:13:09;100115.20;;;30.60
70533;BMP180;58088;51.186;17.130;2023-06-01T13:15:40;100119.00;;;30.60
70533;BMP180;58088;51.186;17.130;2023-06-01T13:18:06;100117.60;;;30.60
70533;BMP180;58088;51.186;17.130;2023-06-01T13:20:33;100108.40;;;30.52
70533;BMP180;58088;51.186;17.130;2023-06-01T13:22:59;100108.20;;;30.50
70533;BMP180;58088;51.186;17.130;2023-06-01T13:25:26;100103.00;;;30.54
70533;BMP180;58088;51.186;17.130;2023-06-01T13:27:52;100105.40;;;30.50
70533;BMP180;58088;51.186;17.130;2023-06-01T13:30:19;100110.60;;;30.50
70533;BMP180;58088;51.186;17.130;2023-06-01T13:32:45;100107.40;;;30.50
70533;BMP180;58088;51.186;17.130;2023-06-01T13:35:12;100100.00;;;30.54
70533;BMP180;58088;51.186;17.130;2023-06-01T13:37:38;100102.20;;;30.52
70533;BMP180;58088;51.186;17.130;2023-06-01T13:40:05;100103.20;;;30.50
70533;BMP180;58088;51.186;17.130;2023-06-01T13:42:32;100089.60;;;30.40
70533;BMP180;58088;51.186;17.130;2023-06-01T13:44:59;100083.40;;;30.28
70533;BMP180;58088;51.186;17.130;2023-06-01T13:47:25;100092.80;;;30.20
70533;BMP180;58088;51.186;17.130;2023-06-01T13:49:52;100088.60;;;30.30
70533;BMP180;58088;51.186;17.130;2023-06-01T13:52:18;100088.20;;;30.30
70533;BMP180;58088;51.186;17.130;2023-06-01T13:54:44;100078.00;;;30.30
70533;BMP180;58088;51.186;17.130;2023-06-01T13:57:10;100080.80;;;30.24
70533;BMP180;58088;51.186;17.130;2023-06-01T13:59:37;100079.60;;;30.30
70533;BMP180;58088;51.186;17.130;2023-06-01T14:02:03;100079.40;;;30.30
70533;BMP180;58088;51.186;17.130;2023-06-01T14:04:31;100084.20;;;30.20
70533;BMP180;58088;51.186;17.130;2023-06-01T14:06:57;100076.60;;;30.10
70533;BMP180;58088;51.186;17.130;2023-06-01T14:09:23;100083.20;;;30.10
70533;BMP180;58088;51.186;17.130;2023-06-01T14:11:50;100077.40;;;30.10
70533;BMP180;58088;51.186;17.130;2023-06-01T14:14:16;100066.80;;;30.10
70533;BMP180;58088;51.186;17.130;2023-06-01T14:16:42;100063.20;;;30.00
70533;BMP180;58088;51.186;17.130;2023-06-01T14:19:09;100060.40;;;30.00
70533;BMP180;58088;51.186;17.130;2023-06-01T14:21:35;100062.20;;;30.10
70533;BMP180;58088;51.186;17.130;2023-06-01T14:24:02;100056.00;;;30.10